createdAt,value
2018-12-02T00:03:15.359Z,13.00
2018-12-02T00:08:18.547Z,8.50
2018-12-02T00:13:21.801Z,11.47
2018-12-02T00:18:25.019Z,8.17
2018-12-02T00:23:28.263Z,10.57
2018-12-02T00:28:31.474Z,9.63
2018-12-02T00:33:34.722Z,8.13
2018-12-02T00:38:37.921Z,6.83
2018-12-02T00:43:41.119Z,7.70
2018-12-02T00:48:44.355Z,6.40
2018-12-02T00:53:47.620Z,6.90
2018-12-02T00:58:50.824Z,7.57
2018-12-02T01:03:54.036Z,8.63
2018-12-02T01:08:57.257Z,7.20
2018-12-02T01:14:00.463Z,6.53
2018-12-02T01:19:03.655Z,11.10
2018-12-02T01:24:07.123Z,7.83
2018-12-02T01:29:10.703Z,8.00
2018-12-02T01:34:13.939Z,6.07
2018-12-02T01:39:17.154Z,6.97
2018-12-02T01:44:20.380Z,7.10
2018-12-02T01:49:23.635Z,5.73
2018-12-02T01:54:26.845Z,7.93
2018-12-02T01:59:30.885Z,8.50
2018-12-02T02:04:34.104Z,5.80
2018-12-02T02:09:37.381Z,6.40
2018-12-02T02:14:40.684Z,5.97
2018-12-02T02:19:44.598Z,8.00
2018-12-02T02:24:47.871Z,7.63
2018-12-02T02:29:51.199Z,9.07
2018-12-02T02:34:54.432Z,8.93
2018-12-02T02:39:57.648Z,9.80
2018-12-02T02:45:00.896Z,9.77
2018-12-02T02:50:12.334Z,7.80
2018-12-02T02:55:15.547Z,7.30
2018-12-02T03:00:20.613Z,7.17
2018-12-02T03:05:23.881Z,7.83
2018-12-02T03:10:27.085Z,11.47
2018-12-02T03:15:30.323Z,10.20
2018-12-02T03:20:33.592Z,7.00
2018-12-02T03:25:36.803Z,7.53
2018-12-02T03:30:40.210Z,7.07
2018-12-02T03:35:43.579Z,8.73
2018-12-02T03:40:46.786Z,7.17
2018-12-02T03:45:50.053Z,8.60
2018-12-02T03:50:53.286Z,9.23
2018-12-02T03:55:56.525Z,6.50
2018-12-02T04:00:59.713Z,6.67
2018-12-02T04:06:02.967Z,7.23
2018-12-02T04:11:06.279Z,12.50
2018-12-02T04:16:09.595Z,9.20
2018-12-02T04:21:12.865Z,8.60
2018-12-02T04:26:16.080Z,8.20
2018-12-02T04:31:19.293Z,8.30
2018-12-02T04:36:22.477Z,7.53
2018-12-02T04:41:25.717Z,7.27
2018-12-02T04:46:28.980Z,9.13
2018-12-02T04:51:32.190Z,5.97
2018-12-02T04:56:35.432Z,5.67
2018-12-02T05:01:38.641Z,8.77
2018-12-02T05:06:41.843Z,7.37
2018-12-02T05:11:45.052Z,8.13
2018-12-02T05:16:48.310Z,6.03
2018-12-02T05:21:51.654Z,7.30
2018-12-02T05:26:54.832Z,6.77
2018-12-02T05:31:58.073Z,6.93
2018-12-02T05:37:01.253Z,8.10
2018-12-02T05:42:09.830Z,7.23
2018-12-02T05:47:13.090Z,9.27
2018-12-02T05:52:16.347Z,6.00
2018-12-02T05:57:19.675Z,4.97
2018-12-02T06:02:22.839Z,7.43
2018-12-02T06:07:26.092Z,5.10
2018-12-02T06:12:29.359Z,6.07
2018-12-02T06:17:32.637Z,5.03
2018-12-02T06:22:36.048Z,8.90
2018-12-02T06:27:39.432Z,5.90
2018-12-02T06:32:42.733Z,4.40
2018-12-02T06:37:45.982Z,5.73
2018-12-02T06:42:49.643Z,6.00
2018-12-02T06:47:53.021Z,4.93
2018-12-02T06:52:56.991Z,5.70
2018-12-02T06:58:07.191Z,6.63
2018-12-02T07:03:36.028Z,6.00
2018-12-02T07:08:39.251Z,4.93
2018-12-02T07:13:42.480Z,5.23
2018-12-02T07:18:49.333Z,4.87
2018-12-02T07:23:54.468Z,5.50
2018-12-02T07:28:57.700Z,6.07
2018-12-02T07:34:00.885Z,5.83
2018-12-02T07:41:16.576Z,6.97
2018-12-02T07:46:19.957Z,5.13
2018-12-02T07:51:23.133Z,6.57
2018-12-02T07:56:26.405Z,4.80
2018-12-02T08:01:31.116Z,6.17
2018-12-02T08:06:34.423Z,5.30
2018-12-02T08:11:37.701Z,6.80
2018-12-02T08:16:40.961Z,6.87
2018-12-02T08:21:44.315Z,8.00
2018-12-02T08:26:47.565Z,6.43
2018-12-02T08:31:50.793Z,5.93
2018-12-02T08:36:54.061Z,5.40
2018-12-02T08:41:57.295Z,7.17
2018-12-02T08:47:00.567Z,5.27
2018-12-02T08:52:04.059Z,5.00
2018-12-02T08:57:07.416Z,6.40
2018-12-02T09:02:10.657Z,7.30
2018-12-02T09:07:13.864Z,6.73
2018-12-02T09:12:17.139Z,7.13
2018-12-02T09:17:20.881Z,6.10
2018-12-02T09:22:24.168Z,9.10
2018-12-02T09:27:27.465Z,6.17
2018-12-02T09:32:30.638Z,7.23
2018-12-02T09:37:34.211Z,5.93
2018-12-02T09:42:37.576Z,6.20
2018-12-02T09:47:41.388Z,8.30
2018-12-02T09:52:44.799Z,9.87
2018-12-02T09:57:48.109Z,6.40
2018-12-02T10:02:51.323Z,6.47
2018-12-02T10:07:57.541Z,6.90
2018-12-02T10:13:03.183Z,8.70
2018-12-02T10:18:07.230Z,7.87
2018-12-02T10:23:10.565Z,6.17
2018-12-02T10:28:13.922Z,6.43
2018-12-02T10:33:18.360Z,7.53
2018-12-02T10:38:21.719Z,8.73
2018-12-02T10:43:24.987Z,7.77
2018-12-02T10:48:28.214Z,6.77
2018-12-02T10:53:31.831Z,7.47
2018-12-02T10:58:35.537Z,7.77
2018-12-02T11:03:38.836Z,7.17
2018-12-02T11:08:42.367Z,6.33
2018-12-02T11:13:45.723Z,5.83
2018-12-02T11:18:49.022Z,6.17
2018-12-02T11:23:52.414Z,7.27
2018-12-02T11:28:55.655Z,6.67
2018-12-02T11:33:58.982Z,7.30
2018-12-02T11:39:02.468Z,11.33
2018-12-02T11:44:06.164Z,7.53
2018-12-02T11:49:09.411Z,8.73
2018-12-02T11:54:13.007Z,6.20
2018-12-02T11:59:16.277Z,4.90
2018-12-02T12:04:19.532Z,6.60
2018-12-02T12:09:23.032Z,6.23
2018-12-02T12:14:26.262Z,6.10
2018-12-02T12:19:29.552Z,5.50
2018-12-02T12:24:32.834Z,3.47
2018-12-02T12:29:36.163Z,5.20
2018-12-02T12:34:39.464Z,3.43
2018-12-02T12:39:42.673Z,4.93
2018-12-02T12:44:46.011Z,15.00
2018-12-02T12:49:49.420Z,4.10
2018-12-02T12:54:52.738Z,3.87
2018-12-02T12:59:56.115Z,3.73
2018-12-02T13:04:59.425Z,5.10
2018-12-02T13:10:02.826Z,6.43
2018-12-02T13:15:09.682Z,6.17
2018-12-02T13:20:18.171Z,5.67
2018-12-02T13:25:21.467Z,4.47
2018-12-02T13:30:24.845Z,7.03
2018-12-02T13:35:28.157Z,4.47
2018-12-02T13:40:31.367Z,3.80
2018-12-02T13:45:34.723Z,4.17
2018-12-02T13:50:39.105Z,3.80
2018-12-02T13:55:42.349Z,6.77
2018-12-02T14:00:45.612Z,4.10
2018-12-02T14:05:49.763Z,6.87
2018-12-02T14:10:53.253Z,4.60
2018-12-02T14:17:06.023Z,4.83
2018-12-02T14:22:09.710Z,5.23
2018-12-02T14:27:13.659Z,9.60
2018-12-02T14:32:18.302Z,4.03
2018-12-02T14:37:22.627Z,4.83
2018-12-02T14:42:25.912Z,6.20
2018-12-02T14:47:29.189Z,5.13
2018-12-02T14:52:32.698Z,4.03
2018-12-02T14:57:36.030Z,7.40
2018-12-02T15:02:39.304Z,5.50
2018-12-02T15:07:44.293Z,3.93
2018-12-02T15:12:48.334Z,4.13
2018-12-02T15:17:51.683Z,6.67
2018-12-02T15:22:54.973Z,3.60
2018-12-02T15:27:59.332Z,5.40
2018-12-02T15:33:02.755Z,5.13
2018-12-02T15:38:06.421Z,4.70
2018-12-02T15:43:09.786Z,6.90
2018-12-02T15:48:13.043Z,5.10
2018-12-02T15:53:16.623Z,4.77
2018-12-02T15:58:20.346Z,6.23
2018-12-02T16:03:23.645Z,8.07
2018-12-02T16:08:26.975Z,6.60
2018-12-02T16:13:30.346Z,6.67
2018-12-02T16:18:33.575Z,6.60
2018-12-02T16:23:36.930Z,7.00
2018-12-02T16:28:40.290Z,8.97
2018-12-02T16:33:43.567Z,5.27
2018-12-02T16:38:46.913Z,6.10
2018-12-02T16:43:50.537Z,4.60
2018-12-02T16:48:53.834Z,6.57
2018-12-02T16:53:57.339Z,7.00
2018-12-02T16:59:11.842Z,6.03
2018-12-02T17:04:15.693Z,12.73
2018-12-02T17:09:19.297Z,4.63
2018-12-02T17:14:22.749Z,5.33
2018-12-02T17:19:26.398Z,3.00
2018-12-02T17:24:29.658Z,5.13
2018-12-02T17:29:33.388Z,4.87
2018-12-02T17:34:36.656Z,5.50
2018-12-02T17:39:45.040Z,6.27
2018-12-02T17:44:48.844Z,4.17
2018-12-02T17:49:52.211Z,4.77
2018-12-02T17:54:55.616Z,3.50
2018-12-02T17:59:59.002Z,2.60
2018-12-02T18:05:02.368Z,4.97
2018-12-02T18:10:09.265Z,3.53
2018-12-02T18:15:14.045Z,3.50
2018-12-02T18:20:18.295Z,5.93
2018-12-02T18:25:22.290Z,4.37
2018-12-02T18:30:27.217Z,4.43
2018-12-02T18:35:44.338Z,6.10
2018-12-02T18:40:51.868Z,4.23
2018-12-02T18:45:55.514Z,5.87
2018-12-02T18:50:58.875Z,4.33
2018-12-02T18:56:02.247Z,3.60
2018-12-02T19:01:05.823Z,4.00
2018-12-02T19:06:09.901Z,5.27
2018-12-02T19:11:13.445Z,5.50
2018-12-02T19:16:17.619Z,6.97
2018-12-02T19:21:23.361Z,8.90
2018-12-02T19:26:26.980Z,5.20
2018-12-02T19:31:30.310Z,5.20
2018-12-02T19:36:35.993Z,6.83
2018-12-02T19:41:39.292Z,7.27
2018-12-02T19:46:42.798Z,9.83
2018-12-02T19:51:46.199Z,6.90
2018-12-02T19:56:50.544Z,6.83
2018-12-02T20:01:54.185Z,6.43
2018-12-02T20:06:58.315Z,10.60
2018-12-02T20:12:01.871Z,6.33
2018-12-02T20:17:05.802Z,6.30
2018-12-02T20:22:09.373Z,7.30
2018-12-02T20:27:13.354Z,8.73
2018-12-02T20:32:19.089Z,7.50
2018-12-02T20:37:23.575Z,7.27
2018-12-02T20:42:29.013Z,8.30
2018-12-02T20:47:35.656Z,14.23
2018-12-02T20:52:39.322Z,7.50
2018-12-02T20:57:43.432Z,7.83
2018-12-02T21:02:53.944Z,9.90
2018-12-02T21:07:57.481Z,11.40
2018-12-02T21:13:01.337Z,9.00
2018-12-02T21:18:04.744Z,7.90
2018-12-02T21:23:08.230Z,11.17
2018-12-02T21:28:12.434Z,9.23
2018-12-02T21:33:15.952Z,10.67
2018-12-02T21:38:19.374Z,9.53
2018-12-02T21:43:23.289Z,9.20
2018-12-02T21:48:30.064Z,10.00
2018-12-02T21:53:33.444Z,12.80
2018-12-02T21:58:37.308Z,12.00
2018-12-02T22:03:40.859Z,10.60
2018-12-02T22:08:44.401Z,13.33
2018-12-02T22:13:47.684Z,13.00
2018-12-02T22:18:51.417Z,13.50
2018-12-02T22:23:54.968Z,12.07
2018-12-02T22:28:58.367Z,18.67
2018-12-02T22:34:01.699Z,14.37
2018-12-02T22:39:07.425Z,14.20
2018-12-02T22:44:10.702Z,14.77
2018-12-02T22:49:14.008Z,12.60
2018-12-02T22:54:17.547Z,14.77
2018-12-02T22:59:20.806Z,13.97
2018-12-02T23:04:24.161Z,13.23
2018-12-02T23:09:27.508Z,12.90
2018-12-02T23:14:30.743Z,12.67
2018-12-02T23:19:34.218Z,18.20
2018-12-02T23:24:37.567Z,13.13
2018-12-02T23:29:40.979Z,15.30
2018-12-02T23:34:44.182Z,13.50
2018-12-02T23:39:47.448Z,13.33
2018-12-02T23:44:51.491Z,14.60
2018-12-02T23:49:54.694Z,12.93
2018-12-02T23:54:57.938Z,15.83
